createdAt,value
2018-06-27T00:00:40.785Z,13.70
2018-06-27T00:03:09.236Z,13.70
2018-06-27T00:05:37.644Z,13.70
2018-06-27T00:08:06.052Z,13.70
2018-06-27T00:10:34.589Z,13.70
2018-06-27T00:13:03.200Z,13.70
2018-06-27T00:15:31.660Z,13.80
2018-06-27T00:18:00.038Z,13.60
2018-06-27T00:20:28.449Z,13.60
2018-06-27T00:22:56.858Z,13.50
2018-06-27T00:25:25.250Z,13.40
2018-06-27T00:27:53.651Z,13.40
2018-06-27T00:30:22.137Z,13.50
2018-06-27T00:32:50.532Z,13.40
2018-06-27T00:35:18.949Z,13.30
2018-06-27T00:37:47.360Z,13.10
2018-06-27T00:40:15.764Z,13.10
2018-06-27T00:42:44.164Z,13.10
2018-06-27T00:45:12.596Z,13.10
2018-06-27T00:47:40.993Z,13.20
2018-06-27T00:50:09.401Z,13.20
2018-06-27T00:52:37.820Z,13.20
2018-06-27T00:55:06.567Z,13.20
2018-06-27T00:57:34.962Z,13.20
2018-06-27T01:00:03.422Z,13.30
2018-06-27T01:02:31.808Z,13.20
2018-06-27T01:05:00.196Z,13.20
2018-06-27T01:07:28.736Z,13.20
2018-06-27T01:09:57.121Z,13.10
2018-06-27T01:12:25.542Z,13.10
2018-06-27T01:17:22.089Z,13.00
2018-06-27T01:19:50.556Z,13.00
2018-06-27T01:22:18.973Z,13.00
2018-06-27T01:24:47.392Z,13.00
2018-06-27T01:27:15.806Z,12.90
2018-06-27T01:29:44.215Z,12.80
2018-06-27T01:32:12.625Z,12.80
2018-06-27T01:34:41.025Z,12.90
2018-06-27T01:37:09.420Z,12.90
2018-06-27T01:39:37.816Z,12.90
2018-06-27T01:42:06.385Z,12.80
2018-06-27T01:44:34.825Z,12.80
2018-06-27T01:47:03.276Z,12.70
2018-06-27T01:49:31.683Z,12.70
2018-06-27T01:52:00.136Z,12.70
2018-06-27T01:54:28.547Z,12.70
2018-06-27T01:56:56.961Z,12.60
2018-06-27T01:59:25.352Z,12.60
2018-06-27T02:01:53.740Z,12.60
2018-06-27T02:04:22.132Z,12.60
2018-06-27T02:06:50.552Z,12.60
2018-06-27T02:09:18.949Z,12.60
2018-06-27T02:11:47.677Z,12.50
2018-06-27T02:14:16.068Z,12.40
2018-06-27T02:16:44.469Z,12.40
2018-06-27T02:19:12.915Z,12.50
2018-06-27T02:21:41.295Z,12.40
2018-06-27T02:24:10.277Z,12.40
2018-06-27T02:26:38.684Z,12.40
2018-06-27T02:29:07.089Z,12.30
2018-06-27T02:31:35.464Z,12.30
2018-06-27T02:34:03.889Z,12.30
2018-06-27T02:36:32.276Z,12.20
2018-06-27T02:39:00.703Z,12.20
2018-06-27T02:41:29.129Z,12.20
2018-06-27T02:43:57.556Z,12.10
2018-06-27T02:46:25.945Z,12.10
2018-06-27T02:48:54.577Z,12.10
2018-06-27T02:51:22.976Z,12.10
2018-06-27T02:53:51.368Z,12.10
2018-06-27T02:56:19.775Z,12.10
2018-06-27T02:58:48.164Z,12.10
2018-06-27T03:01:16.589Z,12.10
2018-06-27T03:03:45.173Z,12.10
2018-06-27T03:06:13.624Z,12.10
2018-06-27T03:08:42.045Z,12.10
2018-06-27T03:11:10.452Z,12.10
2018-06-27T03:13:38.937Z,12.10
2018-06-27T03:16:07.392Z,12.10
2018-06-27T03:18:36.045Z,12.00
2018-06-27T03:21:04.439Z,12.10
2018-06-27T03:23:32.864Z,12.20
2018-06-27T03:26:01.255Z,12.10
2018-06-27T03:28:29.661Z,12.10
2018-06-27T03:30:58.111Z,12.10
2018-06-27T03:33:26.500Z,12.10
2018-06-27T03:35:54.922Z,12.10
2018-06-27T03:38:23.359Z,12.10
2018-06-27T03:40:51.814Z,12.20
2018-06-27T03:43:20.189Z,12.20
2018-06-27T03:45:48.595Z,12.20
2018-06-27T03:48:17.008Z,12.20
2018-06-27T03:50:45.396Z,12.10
2018-06-27T03:53:13.815Z,12.10
2018-06-27T03:55:42.216Z,12.10
2018-06-27T03:58:10.649Z,12.10
2018-06-27T04:00:39.061Z,12.10
2018-06-27T04:03:07.488Z,12.10
2018-06-27T04:05:35.912Z,12.20
2018-06-27T04:08:04.334Z,12.20
2018-06-27T04:10:32.727Z,12.40
2018-06-27T04:15:29.249Z,13.40
2018-06-27T04:17:57.656Z,13.70
2018-06-27T04:22:54.211Z,14.20
2018-06-27T04:25:22.600Z,14.30
2018-06-27T04:27:51.024Z,14.00
2018-06-27T04:30:19.485Z,13.70
2018-06-27T04:32:47.888Z,13.80
2018-06-27T04:35:16.310Z,13.70
2018-06-27T04:37:44.725Z,13.60
2018-06-27T04:40:13.115Z,13.60
2018-06-27T04:42:41.521Z,13.50
2018-06-27T04:45:09.934Z,13.60
2018-06-27T04:47:38.345Z,13.60
2018-06-27T04:50:06.753Z,13.60
2018-06-27T04:52:35.140Z,13.60
2018-06-27T04:55:03.601Z,13.60
2018-06-27T04:57:31.999Z,13.70
2018-06-27T05:00:00.445Z,14.30
2018-06-27T05:02:28.860Z,15.40
2018-06-27T05:04:57.305Z,15.80
2018-06-27T05:07:25.785Z,15.70
2018-06-27T05:09:54.152Z,15.60
2018-06-27T05:12:22.605Z,16.10
2018-06-27T05:14:50.977Z,17.00
2018-06-27T05:17:19.385Z,17.90
2018-06-27T05:19:47.852Z,18.60
2018-06-27T05:22:16.357Z,18.90
2018-06-27T05:24:44.758Z,19.20
2018-06-27T05:27:13.169Z,19.60
2018-06-27T05:29:41.545Z,20.00
2018-06-27T05:32:09.949Z,20.00
2018-06-27T05:34:38.380Z,20.10
2018-06-27T05:37:06.784Z,20.40
2018-06-27T05:39:35.288Z,20.30
2018-06-27T05:42:03.740Z,20.80
2018-06-27T05:44:32.152Z,21.20
2018-06-27T05:47:00.560Z,21.10
2018-06-27T05:49:29.000Z,20.80
2018-06-27T05:51:57.392Z,20.30
2018-06-27T05:54:26.328Z,19.60
2018-06-27T05:59:23.741Z,18.10
2018-06-27T06:01:52.498Z,17.60
2018-06-27T06:04:20.983Z,17.10
2018-06-27T06:06:49.312Z,16.90
2018-06-27T06:09:17.696Z,16.80
2018-06-27T06:11:46.117Z,16.70
2018-06-27T06:14:14.521Z,16.60
2018-06-27T06:16:42.926Z,16.60
2018-06-27T06:19:11.625Z,16.60
2018-06-27T06:21:40.018Z,16.60
2018-06-27T06:24:08.757Z,16.70
2018-06-27T06:26:37.203Z,16.90
2018-06-27T06:29:06.000Z,17.00
2018-06-27T06:31:34.652Z,17.00
2018-06-27T06:34:03.051Z,17.00
2018-06-27T06:36:31.453Z,17.20
2018-06-27T06:38:59.873Z,17.30
2018-06-27T06:41:28.276Z,17.40
2018-06-27T06:43:56.709Z,17.50
2018-06-27T06:46:25.177Z,17.50
2018-06-27T06:48:53.561Z,17.60
2018-06-27T06:51:21.964Z,17.70
2018-06-27T06:53:50.380Z,17.70
2018-06-27T06:56:18.867Z,17.50
2018-06-27T07:01:15.436Z,17.80
2018-06-27T07:03:43.841Z,17.90
2018-06-27T07:06:12.268Z,17.90
2018-06-27T07:08:40.692Z,18.00
2018-06-27T07:11:09.161Z,18.20
2018-06-27T07:13:37.490Z,18.20
2018-06-27T07:16:05.928Z,18.30
2018-06-27T07:18:34.373Z,18.20
2018-06-27T07:21:02.805Z,18.10
2018-06-27T07:23:31.237Z,18.30
2018-06-27T07:25:59.673Z,18.40
2018-06-27T07:28:28.080Z,18.30
2018-06-27T07:33:24.643Z,18.40
2018-06-27T07:35:53.101Z,18.40
2018-06-27T07:38:21.477Z,18.50
2018-06-27T07:40:49.913Z,18.60
2018-06-27T07:43:18.312Z,18.80
2018-06-27T07:45:46.701Z,18.80
2018-06-27T07:48:15.114Z,18.90
2018-06-27T07:50:43.512Z,18.80
2018-06-27T07:53:12.420Z,19.00
2018-06-27T07:55:40.857Z,19.10
2018-06-27T07:58:09.345Z,19.20
2018-06-27T08:00:37.769Z,19.20
2018-06-27T08:03:06.204Z,19.10
2018-06-27T08:05:34.613Z,19.20
2018-06-27T08:08:02.992Z,19.30
2018-06-27T08:10:31.408Z,19.40
2018-06-27T08:12:59.806Z,19.60
2018-06-27T08:15:28.200Z,19.70
2018-06-27T08:17:56.772Z,19.80
2018-06-27T08:20:25.069Z,19.90
2018-06-27T08:22:53.466Z,19.80
2018-06-27T08:25:21.874Z,19.80
2018-06-27T08:27:50.324Z,20.00
2018-06-27T08:30:18.734Z,20.00
2018-06-27T08:32:47.121Z,20.20
2018-06-27T08:35:15.574Z,20.50
2018-06-27T08:37:43.977Z,20.40
2018-06-27T08:40:12.418Z,20.60
2018-06-27T08:42:41.145Z,20.60
2018-06-27T08:45:09.602Z,20.80
2018-06-27T08:47:38.008Z,21.00
2018-06-27T08:50:06.442Z,21.10
2018-06-27T08:52:35.021Z,21.20
2018-06-27T08:55:03.467Z,21.20
2018-06-27T08:57:31.875Z,21.30
2018-06-27T09:00:00.276Z,21.50
2018-06-27T09:02:28.737Z,21.50
2018-06-27T09:04:57.159Z,21.60
2018-06-27T09:07:25.596Z,21.60
2018-06-27T09:09:54.001Z,21.60
2018-06-27T09:12:22.562Z,21.80
2018-06-27T09:14:51.047Z,22.00
2018-06-27T09:17:19.495Z,22.30
2018-06-27T09:19:47.908Z,22.80
2018-06-27T09:22:16.327Z,23.70
2018-06-27T09:24:44.722Z,25.30
2018-06-27T09:27:13.121Z,26.10
2018-06-27T09:29:41.552Z,26.60
2018-06-27T09:32:09.984Z,27.60
2018-06-27T09:34:38.389Z,28.60
2018-06-27T09:37:06.963Z,29.30
2018-06-27T09:39:35.409Z,29.70
2018-06-27T09:42:03.863Z,29.80
2018-06-27T09:44:32.309Z,30.00
2018-06-27T09:47:00.800Z,29.40
2018-06-27T09:49:29.226Z,29.70
2018-06-27T09:51:57.613Z,30.00
2018-06-27T09:54:26.026Z,30.40
2018-06-27T09:56:54.512Z,30.50
2018-06-27T09:59:23.085Z,30.50
2018-06-27T10:01:51.483Z,30.00
2018-06-27T10:06:48.082Z,30.50
2018-06-27T10:09:16.471Z,31.10
2018-06-27T10:11:44.868Z,31.20
2018-06-27T10:14:13.260Z,31.90
2018-06-27T10:16:41.665Z,31.40
2018-06-27T10:19:10.237Z,31.20
2018-06-27T10:21:38.666Z,30.30
2018-06-27T10:24:07.140Z,31.00
2018-06-27T10:26:35.820Z,31.70
2018-06-27T10:29:04.252Z,32.20
2018-06-27T10:31:32.796Z,32.40
2018-06-27T10:34:01.184Z,31.50
2018-06-27T10:36:29.624Z,31.30
2018-06-27T10:38:58.014Z,31.60
2018-06-27T10:41:26.446Z,31.50
2018-06-27T10:43:54.891Z,31.90
2018-06-27T10:46:23.278Z,31.20
2018-06-27T10:48:51.738Z,31.00
2018-06-27T10:51:20.173Z,31.30
2018-06-27T10:53:48.556Z,31.20
2018-06-27T10:58:45.105Z,31.40
2018-06-27T11:01:13.620Z,31.30
2018-06-27T11:03:41.940Z,31.30
2018-06-27T11:06:10.346Z,30.90
2018-06-27T11:08:38.770Z,31.00
2018-06-27T11:11:07.172Z,31.40
2018-06-27T11:13:35.941Z,31.40
2018-06-27T11:16:04.350Z,31.60
2018-06-27T11:18:32.757Z,31.40
2018-06-27T11:21:01.181Z,31.60
2018-06-27T11:23:29.589Z,32.10
2018-06-27T11:25:58.000Z,31.50
2018-06-27T11:28:26.448Z,31.70
2018-06-27T11:30:54.886Z,31.20
2018-06-27T11:33:23.309Z,31.70
2018-06-27T11:35:51.753Z,31.80
2018-06-27T11:38:20.248Z,31.30
2018-06-27T11:40:48.986Z,30.70
2018-06-27T11:43:17.486Z,30.90
2018-06-27T11:45:45.985Z,30.80
2018-06-27T11:48:14.421Z,31.00
2018-06-27T11:50:42.861Z,31.10
2018-06-27T11:53:11.313Z,31.60
2018-06-27T11:55:39.981Z,31.90
2018-06-27T11:58:09.664Z,31.70
2018-06-27T12:00:38.150Z,31.70
2018-06-27T12:03:06.580Z,31.20
2018-06-27T12:05:34.994Z,31.10
2018-06-27T12:08:03.519Z,31.40
2018-06-27T12:10:32.182Z,31.10
2018-06-27T12:13:00.603Z,31.40
2018-06-27T12:15:29.021Z,31.10
2018-06-27T12:17:57.604Z,30.70
2018-06-27T12:20:26.096Z,30.50
2018-06-27T12:22:54.493Z,30.30
2018-06-27T12:25:22.912Z,30.70
2018-06-27T12:27:51.416Z,30.10
2018-06-27T12:32:51.188Z,30.30
2018-06-27T12:35:20.797Z,30.00
2018-06-27T12:37:49.401Z,30.30
2018-06-27T12:40:17.921Z,29.90
2018-06-27T12:42:46.457Z,29.20
2018-06-27T12:45:14.916Z,28.90
2018-06-27T12:47:43.616Z,28.50
2018-06-27T12:50:12.153Z,28.40
2018-06-27T12:52:40.494Z,27.90
2018-06-27T12:55:11.029Z,27.80
2018-06-27T12:57:39.567Z,28.20
2018-06-27T13:00:09.185Z,28.70
2018-06-27T13:02:37.620Z,28.50
2018-06-27T13:05:07.213Z,27.90
2018-06-27T13:07:35.622Z,27.30
2018-06-27T13:10:04.672Z,27.10
2018-06-27T13:12:33.056Z,27.30
2018-06-27T13:15:01.819Z,27.70
2018-06-27T13:17:30.296Z,28.20
2018-06-27T13:19:58.785Z,28.70
2018-06-27T13:22:27.189Z,29.00
2018-06-27T13:24:55.602Z,28.60
2018-06-27T13:27:24.025Z,28.30
2018-06-27T13:29:52.477Z,27.90
2018-06-27T13:32:20.914Z,27.70
2018-06-27T13:34:49.327Z,28.00
2018-06-27T13:37:17.723Z,28.20
2018-06-27T13:39:46.393Z,28.00
2018-06-27T13:42:14.829Z,27.60
2018-06-27T13:44:43.246Z,27.30
2018-06-27T13:47:11.711Z,27.10
2018-06-27T13:49:40.329Z,27.00
2018-06-27T13:52:08.812Z,27.00
2018-06-27T13:54:37.252Z,27.30
2018-06-27T13:57:05.871Z,27.60
2018-06-27T13:59:36.430Z,27.90
2018-06-27T14:02:04.934Z,28.10
2018-06-27T14:04:33.311Z,27.70
2018-06-27T14:07:01.744Z,27.60
2018-06-27T14:09:30.294Z,27.30
2018-06-27T14:11:58.733Z,27.20
2018-06-27T14:14:27.118Z,27.20
2018-06-27T14:16:55.637Z,27.10
2018-06-27T14:19:24.065Z,26.80
2018-06-27T14:21:52.469Z,26.80
2018-06-27T14:24:20.990Z,26.70
2018-06-27T14:26:49.412Z,26.90
2018-06-27T14:29:17.845Z,27.20
2018-06-27T14:31:46.262Z,27.40
2018-06-27T14:34:14.761Z,27.40
2018-06-27T14:36:43.184Z,27.30
2018-06-27T14:39:11.660Z,27.30
2018-06-27T14:41:40.389Z,27.30
2018-06-27T14:44:09.152Z,27.60
2018-06-27T14:46:37.747Z,27.70
2018-06-27T14:49:06.229Z,27.60
2018-06-27T14:51:35.204Z,27.40
2018-06-27T14:54:03.802Z,27.30
2018-06-27T14:56:32.278Z,27.50
2018-06-27T14:59:00.773Z,27.60
2018-06-27T15:01:29.262Z,27.80
2018-06-27T15:03:57.714Z,27.50
2018-06-27T15:06:26.181Z,27.20
2018-06-27T15:08:54.602Z,27.20
2018-06-27T15:11:23.028Z,27.10
2018-06-27T15:13:51.461Z,27.00
2018-06-27T15:16:19.969Z,26.90
2018-06-27T15:18:48.384Z,27.00
2018-06-27T15:21:16.838Z,27.00
2018-06-27T15:23:45.411Z,27.10
2018-06-27T15:26:13.732Z,27.10
2018-06-27T15:28:42.160Z,26.80
2018-06-27T15:31:10.597Z,26.80
2018-06-27T15:33:39.137Z,27.00
2018-06-27T15:36:07.573Z,27.20
2018-06-27T15:38:35.995Z,27.30
2018-06-27T15:41:06.490Z,27.20
2018-06-27T15:46:03.173Z,26.70
2018-06-27T15:48:31.933Z,26.70
2018-06-27T15:51:00.392Z,26.70
2018-06-27T15:53:28.804Z,26.70
2018-06-27T15:55:57.369Z,26.60
2018-06-27T15:58:26.021Z,26.50
2018-06-27T16:00:54.434Z,26.70
2018-06-27T16:03:22.853Z,26.90
2018-06-27T16:05:51.305Z,27.00
2018-06-27T16:08:19.865Z,27.20
2018-06-27T16:10:48.326Z,27.20
2018-06-27T16:13:16.801Z,27.00
2018-06-27T16:15:45.201Z,26.90
2018-06-27T16:18:13.725Z,26.90
2018-06-27T16:20:42.084Z,26.80
2018-06-27T16:23:10.537Z,26.50
2018-06-27T16:25:39.021Z,26.50
2018-06-27T16:28:08.132Z,26.40
2018-06-27T16:33:04.716Z,26.30
2018-06-27T16:35:33.359Z,26.30
2018-06-27T16:38:01.754Z,26.20
2018-06-27T16:40:30.169Z,26.00
2018-06-27T16:42:58.694Z,25.90
2018-06-27T16:45:27.069Z,25.70
2018-06-27T16:47:55.460Z,25.50
2018-06-27T16:50:23.893Z,25.40
2018-06-27T16:52:52.349Z,25.30
2018-06-27T16:55:20.900Z,25.20
2018-06-27T16:57:49.562Z,25.30
2018-06-27T17:00:18.016Z,25.30
2018-06-27T17:02:46.467Z,25.50
2018-06-27T17:05:14.928Z,25.70
2018-06-27T17:07:43.405Z,25.90
2018-06-27T17:10:13.073Z,25.70
2018-06-27T17:12:41.497Z,25.80
2018-06-27T17:15:09.960Z,25.90
2018-06-27T17:17:38.391Z,25.70
2018-06-27T17:20:07.026Z,25.50
2018-06-27T17:22:35.477Z,25.40
2018-06-27T17:25:04.034Z,25.30
2018-06-27T17:27:32.541Z,25.30
2018-06-27T17:30:01.043Z,25.40
2018-06-27T17:32:29.464Z,25.30
2018-06-27T17:34:57.925Z,25.20
2018-06-27T17:37:26.385Z,25.00
2018-06-27T17:39:55.879Z,24.80
2018-06-27T17:42:24.395Z,24.70
2018-06-27T17:44:52.888Z,24.50
2018-06-27T17:47:21.409Z,24.40
2018-06-27T17:49:49.870Z,24.40
2018-06-27T17:52:18.377Z,24.40
2018-06-27T17:54:46.752Z,24.50
2018-06-27T17:57:15.410Z,24.60
2018-06-27T17:59:43.858Z,24.60
2018-06-27T18:02:12.505Z,24.50
2018-06-27T18:04:40.942Z,24.50
2018-06-27T18:07:09.550Z,24.40
2018-06-27T18:09:37.950Z,24.30
2018-06-27T18:12:06.501Z,24.30
2018-06-27T18:14:35.197Z,24.20
2018-06-27T18:17:03.629Z,24.20
2018-06-27T18:19:32.989Z,24.20
2018-06-27T18:22:01.513Z,24.20
2018-06-27T18:24:30.066Z,24.10
2018-06-27T18:26:58.776Z,24.00
2018-06-27T18:29:27.244Z,23.80
2018-06-27T18:31:55.681Z,23.80
2018-06-27T18:34:24.272Z,23.80
2018-06-27T18:36:53.053Z,23.70
2018-06-27T18:39:21.501Z,23.60
2018-06-27T18:41:50.140Z,23.50
2018-06-27T18:44:18.606Z,23.50
2018-06-27T18:46:47.029Z,23.40
2018-06-27T18:49:15.487Z,23.40
2018-06-27T18:51:43.942Z,23.40
2018-06-27T18:54:12.458Z,23.40
2018-06-27T18:56:40.901Z,23.30
2018-06-27T18:59:09.399Z,23.20
2018-06-27T19:01:37.892Z,23.10
2018-06-27T19:04:06.478Z,23.00
2018-06-27T19:06:34.976Z,23.10
2018-06-27T19:09:04.310Z,23.10
2018-06-27T19:11:32.748Z,23.10
2018-06-27T19:14:01.217Z,23.10
2018-06-27T19:16:29.681Z,23.00
2018-06-27T19:18:58.141Z,23.00
2018-06-27T19:21:26.646Z,22.90
2018-06-27T19:23:55.165Z,22.80
2018-06-27T19:26:23.591Z,22.70
2018-06-27T19:28:52.185Z,22.60
2018-06-27T19:31:20.722Z,22.50
2018-06-27T19:33:49.347Z,22.50
2018-06-27T19:36:17.725Z,22.40
2018-06-27T19:38:46.237Z,22.30
2018-06-27T19:41:14.899Z,22.30
2018-06-27T19:43:43.391Z,22.30
2018-06-27T19:46:12.808Z,22.20
2018-06-27T19:48:41.483Z,22.20
2018-06-27T19:51:09.978Z,22.10
2018-06-27T19:53:38.394Z,22.00
2018-06-27T19:56:07.260Z,21.90
2018-06-27T19:58:35.986Z,21.80
2018-06-27T20:01:04.766Z,21.80
2018-06-27T20:03:33.312Z,21.70
2018-06-27T20:06:02.294Z,21.50
2018-06-27T20:08:30.784Z,21.50
2018-06-27T20:10:59.378Z,21.40
2018-06-27T20:13:27.829Z,21.40
2018-06-27T20:15:57.184Z,21.30
2018-06-27T20:18:25.573Z,21.30
2018-06-27T20:20:54.081Z,21.20
2018-06-27T20:23:22.806Z,21.20
2018-06-27T20:25:51.225Z,21.10
2018-06-27T20:28:19.676Z,21.10
2018-06-27T20:30:48.301Z,21.00
2018-06-27T20:33:16.810Z,20.90
2018-06-27T20:35:45.431Z,20.90
2018-06-27T20:38:13.831Z,20.90
2018-06-27T20:40:42.392Z,20.80
2018-06-27T20:43:11.144Z,20.70
2018-06-27T20:45:39.721Z,20.70
2018-06-27T20:48:08.189Z,20.70
2018-06-27T20:50:36.705Z,20.60
2018-06-27T20:53:05.140Z,20.60
2018-06-27T20:55:33.630Z,20.50
2018-06-27T20:58:02.234Z,20.50
2018-06-27T21:00:30.645Z,20.40
2018-06-27T21:02:59.051Z,20.30
2018-06-27T21:05:27.808Z,20.10
2018-06-27T21:07:56.285Z,20.10
2018-06-27T21:10:24.720Z,20.00
2018-06-27T21:12:53.136Z,20.00
2018-06-27T21:15:21.613Z,19.90
2018-06-27T21:17:50.094Z,19.90
2018-06-27T21:20:18.702Z,19.70
2018-06-27T21:22:47.121Z,19.60
2018-06-27T21:25:15.804Z,19.40
2018-06-27T21:27:44.205Z,19.30
2018-06-27T21:30:12.649Z,19.30
2018-06-27T21:32:41.466Z,19.20
2018-06-27T21:35:09.984Z,19.10
2018-06-27T21:37:38.445Z,19.10
2018-06-27T21:40:06.953Z,19.00
2018-06-27T21:42:35.476Z,19.00
2018-06-27T21:45:04.223Z,18.90
2018-06-27T21:47:32.648Z,19.00
2018-06-27T21:50:01.045Z,18.90
2018-06-27T21:52:29.661Z,18.90
2018-06-27T21:54:58.129Z,18.90
2018-06-27T21:57:26.560Z,18.90
2018-06-27T21:59:55.161Z,18.90
2018-06-27T22:02:23.685Z,18.70
2018-06-27T22:04:52.097Z,18.70
2018-06-27T22:07:20.516Z,18.60
2018-06-27T22:09:48.933Z,18.60
2018-06-27T22:12:17.316Z,18.60
2018-06-27T22:14:45.813Z,18.50
2018-06-27T22:17:14.304Z,18.60
2018-06-27T22:19:42.811Z,18.50
2018-06-27T22:22:11.288Z,18.60
2018-06-27T22:24:39.754Z,18.60
2018-06-27T22:27:08.555Z,18.60
2018-06-27T22:29:36.933Z,18.60
2018-06-27T22:32:05.641Z,18.50
2018-06-27T22:34:34.296Z,18.50
2018-06-27T22:37:02.684Z,18.50
2018-06-27T22:39:31.171Z,18.40
2018-06-27T22:41:59.566Z,18.40
2018-06-27T22:44:28.851Z,18.40
2018-06-27T22:46:57.474Z,18.40
2018-06-27T22:49:26.171Z,18.30
2018-06-27T22:51:54.561Z,18.20
2018-06-27T22:54:23.177Z,18.20
2018-06-27T22:56:51.589Z,18.10
2018-06-27T22:59:19.987Z,18.10
2018-06-27T23:01:48.733Z,18.00
2018-06-27T23:04:17.191Z,18.00
2018-06-27T23:06:45.568Z,18.00
2018-06-27T23:09:14.152Z,18.00
2018-06-27T23:11:42.633Z,17.90
2018-06-27T23:14:11.029Z,17.90
2018-06-27T23:16:39.445Z,17.80
2018-06-27T23:21:35.977Z,17.80
2018-06-27T23:24:04.645Z,17.70
2018-06-27T23:26:33.007Z,17.70
2018-06-27T23:29:01.510Z,17.70
2018-06-27T23:31:29.937Z,17.60
2018-06-27T23:33:58.341Z,17.50
2018-06-27T23:36:26.837Z,17.50
2018-06-27T23:38:55.256Z,17.50
2018-06-27T23:41:23.685Z,17.40
2018-06-27T23:43:52.474Z,17.40
2018-06-27T23:46:20.868Z,17.30
2018-06-27T23:48:49.285Z,17.30
2018-06-27T23:51:17.845Z,17.30
2018-06-27T23:53:46.243Z,17.10
2018-06-27T23:56:14.676Z,17.00
2018-06-27T23:58:43.052Z,16.80
